SCFASANT

Guest
Details From SCFA - Cerro Moreno Intl
To SANT - Teniente Benjamin Matienzo
Flight Number -
Tags Generated
Created
Modified
Stats Distance 355 nm / 657 km
Max Altitude 0 ft / 0 m
Waypoints 3
Social Downloads 3
Likes 0
Share VATSIM

Download

Looking for another format? Having issues loading an existing format? Contact us
Advertisement - Login to hide

Notes

Generated

Route

SCFA TUC SANT

ID Type Via Altitude Latitude Longitude Leg Dist Tot Dist Heading (true) Name
O SCFA APT - 0 ft / 0 m -23.45613˚ -70.44663˚ - 0 nm - -
TUC VOR - 0 ft / 0 m -26.84583˚ -65.10833˚ 354 nm 354 nm 126° / 124° TUCUMAN VOR-DME
O SANT APT - 0 ft / 0 m -26.85366˚ -65.10709˚ 0 nm 354 nm 172° / 172° -

Altitude Profile

Advertisement - Login to hide

Weather


0- 5 10 15 20 25 30 35+ Temperature / ° C

Clouds and Precipitation
Forecast for 2018-05-27 18:00 UTC. Updated 3 hours ago

Ground ~20,000 ft ~40,000 ft Winds

SCFA

Details ICAO SCFA (ANF)
Name CERRO MORENO INTL
Region Chile
Timezone America/Santiago (UTC-4.0)
Stats Elevation 455 ft / 139 m (AMSL)
Location -23.444477° -70.445100°
Runways 1
Magnetic Variation 3.558° W

METAR

SCFA 272000Z 20011KT 9999 FEW016 15/09 Q1015 NOSIG

Decode

TAF

TAF SCFA 271641Z 2718/2818 20010KT 9999 SCT020 TX17/2718Z TN13/2806Z BECMG 2720/2722 BKN015 BECMG 2800/2802 17004KT BECMG 2815/2817 21009KT FEW020

Decode

Departure Runways

ID Width Length Bearing (true) Bearing (mag) Surface Threshold Offset Overrun Length
01 164 ft / 50 m 8,567 ft / 2,611 m 6.86° 10.42° Asphalt 0 ft / 0 m 50 ft / 15 m
19 164 ft / 50 m 8,567 ft / 2,611 m 186.86° 190.42° Asphalt 0 ft / 0 m 155 ft / 47 m

SANT

Details ICAO SANT (TUC)
Name Teniente Benjamin Matienzo
Region Argentina
Timezone America/Argentina/Tucuman (UTC-3.0)
Stats Elevation 1,494 ft / 455 m (AMSL)
Location -26.840800° -65.104601°
Runways 1
Magnetic Variation 7.017° W

METAR

SANT 272000Z 18003KT 9000 NSC 25/13 Q1011

Decode

TAF

TAF SANT 271700Z 2718/2818 20005KT 8000 NSC TX26/2718Z TN15/2810Z PROB40 TEMPO 2809/2812 27005KT 5000 BR HZ NSC

Decode

Destination Runways

ID Width Length Bearing (true) Bearing (mag) Surface Threshold Offset Overrun Length
01 151 ft / 46 m 9,523 ft / 2,903 m 9.80° 16.82° Concrete 0 ft / 0 m 98 ft / 30 m
19 151 ft / 46 m 9,523 ft / 2,903 m 189.80° 196.82° Concrete 0 ft / 0 m 98 ft / 30 m

Approach Navaids

Runway Type Ident Frequency Range Bearing (true) Bearing (mag) Slope Elevation
01 Localiser TU 109.90 MHz 18 nm / 33 km 9.42° 16.43° - 1,439 ft / 439 m (AMSL)
01 Glidescope TU 109.90 MHz 10 nm / 19 km 9.80° 16.82° 3.00° 1,496 ft / 456 m (AMSL)